sensor_id;sensor_type;location;lat;lon;timestamp;P1;durP1;ratioP1;P2;durP2;ratioP2
17261;SDS011;9873;52.236;21.002;2023-03-23T00:00:35;25.85;;;16.75;;
17261;SDS011;9873;52.236;21.002;2023-03-23T00:10:37;21.77;;;14.52;;
17261;SDS011;9873;52.236;21.002;2023-03-23T00:20:45;26.25;;;16.38;;
17261;SDS011;9873;52.236;21.002;2023-03-23T00:41:02;28.23;;;17.08;;
17261;SDS011;9873;52.236;21.002;2023-03-23T00:51:09;28.95;;;17.00;;
17261;SDS011;9873;52.236;21.002;2023-03-23T01:01:13;28.67;;;18.05;;
17261;SDS011;9873;52.236;21.002;2023-03-23T01:11:17;28.88;;;17.02;;
17261;SDS011;9873;52.236;21.002;2023-03-23T01:21:26;25.42;;;15.90;;
17261;SDS011;9873;52.236;21.002;2023-03-23T01:31:28;26.33;;;15.52;;
17261;SDS011;9873;52.236;21.002;2023-03-23T01:41:34;24.10;;;15.10;;
17261;SDS011;9873;52.236;21.002;2023-03-23T01:51:42;24.88;;;14.52;;
17261;SDS011;9873;52.236;21.002;2023-03-23T02:01:48;26.95;;;14.80;;
17261;SDS011;9873;52.236;21.002;2023-03-23T02:11:54;24.65;;;15.90;;
17261;SDS011;9873;52.236;21.002;2023-03-23T02:42:43;21.50;;;12.55;;
17261;SDS011;9873;52.236;21.002;2023-03-23T02:52:49;20.40;;;12.98;;
17261;SDS011;9873;52.236;21.002;2023-03-23T03:02:53;21.77;;;13.50;;
17261;SDS011;9873;52.236;21.002;2023-03-23T03:13:17;18.98;;;12.98;;
17261;SDS011;9873;52.236;21.002;2023-03-23T03:23:27;20.25;;;12.27;;
17261;SDS011;9873;52.236;21.002;2023-03-23T03:33:33;19.30;;;13.00;;
17261;SDS011;9873;52.236;21.002;2023-03-23T03:43:41;21.58;;;11.90;;
17261;SDS011;9873;52.236;21.002;2023-03-23T03:53:44;19.38;;;12.07;;
17261;SDS011;9873;52.236;21.002;2023-03-23T04:03:50;18.75;;;10.80;;
17261;SDS011;9873;52.236;21.002;2023-03-23T04:14:04;18.13;;;11.38;;
17261;SDS011;9873;52.236;21.002;2023-03-23T04:24:18;19.27;;;12.02;;
17261;SDS011;9873;52.236;21.002;2023-03-23T04:34:46;21.20;;;12.00;;
17261;SDS011;9873;52.236;21.002;2023-03-23T04:44:52;20.02;;;11.43;;
17261;SDS011;9873;52.236;21.002;2023-03-23T04:55:03;16.10;;;9.07;;
17261;SDS011;9873;52.236;21.002;2023-03-23T05:05:09;20.85;;;10.32;;
17261;SDS011;9873;52.236;21.002;2023-03-23T05:15:15;15.77;;;9.43;;
17261;SDS011;9873;52.236;21.002;2023-03-23T05:25:19;19.98;;;11.07;;
17261;SDS011;9873;52.236;21.002;2023-03-23T05:35:34;16.17;;;11.43;;
17261;SDS011;9873;52.236;21.002;2023-03-23T05:45:38;23.52;;;12.40;;
17261;SDS011;9873;52.236;21.002;2023-03-23T05:55:44;18.13;;;11.00;;
17261;SDS011;9873;52.236;21.002;2023-03-23T06:05:57;17.50;;;11.27;;
17261;SDS011;9873;52.236;21.002;2023-03-23T06:16:11;18.23;;;10.57;;
17261;SDS011;9873;52.236;21.002;2023-03-23T06:26:34;15.60;;;10.07;;
17261;SDS011;9873;52.236;21.002;2023-03-23T06:36:44;17.98;;;10.52;;
17261;SDS011;9873;52.236;21.002;2023-03-23T06:47:01;18.77;;;11.10;;
17261;SDS011;9873;52.236;21.002;2023-03-23T06:57:12;19.40;;;10.70;;
17261;SDS011;9873;52.236;21.002;2023-03-23T07:07:20;17.88;;;10.18;;
17261;SDS011;9873;52.236;21.002;2023-03-23T07:17:32;15.40;;;10.18;;
17261;SDS011;9873;52.236;21.002;2023-03-23T07:27:44;16.65;;;9.68;;
17261;SDS011;9873;52.236;21.002;2023-03-23T07:37:50;13.55;;;8.60;;
17261;SDS011;9873;52.236;21.002;2023-03-23T07:48:00;16.05;;;9.18;;
17261;SDS011;9873;52.236;21.002;2023-03-23T07:58:14;13.45;;;8.70;;
17261;SDS011;9873;52.236;21.002;2023-03-23T08:08:26;13.18;;;8.43;;
17261;SDS011;9873;52.236;21.002;2023-03-23T08:18:54;11.68;;;7.57;;
17261;SDS011;9873;52.236;21.002;2023-03-23T08:29:28;9.00;;;6.88;;
17261;SDS011;9873;52.236;21.002;2023-03-23T08:39:55;9.75;;;6.20;;
17261;SDS011;9873;52.236;21.002;2023-03-23T08:50:12;8.88;;;6.03;;
17261;SDS011;9873;52.236;21.002;2023-03-23T09:00:33;8.32;;;6.18;;
17261;SDS011;9873;52.236;21.002;2023-03-23T09:11:06;7.65;;;5.10;;
17261;SDS011;9873;52.236;21.002;2023-03-23T09:21:16;11.18;;;5.65;;
17261;SDS011;9873;52.236;21.002;2023-03-23T09:31:19;10.65;;;4.20;;
17261;SDS011;9873;52.236;21.002;2023-03-23T09:52:00;7.15;;;4.18;;
17261;SDS011;9873;52.236;21.002;2023-03-23T10:12:50;8.30;;;4.07;;
17261;SDS011;9873;52.236;21.002;2023-03-23T10:23:08;5.97;;;4.20;;
17261;SDS011;9873;52.236;21.002;2023-03-23T10:33:37;6.00;;;3.55;;
17261;SDS011;9873;52.236;21.002;2023-03-23T10:43:47;5.97;;;3.60;;
17261;SDS011;9873;52.236;21.002;2023-03-23T10:54:02;7.10;;;3.35;;
17261;SDS011;9873;52.236;21.002;2023-03-23T11:04:10;5.38;;;3.55;;
17261;SDS011;9873;52.236;21.002;2023-03-23T11:14:19;6.18;;;4.00;;
17261;SDS011;9873;52.236;21.002;2023-03-23T11:24:27;5.80;;;3.13;;
17261;SDS011;9873;52.236;21.002;2023-03-23T11:34:32;2.63;;;1.70;;
17261;SDS011;9873;52.236;21.002;2023-03-23T11:44:41;4.60;;;1.92;;
17261;SDS011;9873;52.236;21.002;2023-03-23T12:15:52;1.98;;;1.60;;
17261;SDS011;9873;52.236;21.002;2023-03-23T13:07:59;4.85;;;2.85;;
17261;SDS011;9873;52.236;21.002;2023-03-23T13:29:00;6.82;;;3.30;;
17261;SDS011;9873;52.236;21.002;2023-03-23T13:39:21;3.88;;;2.88;;
17261;SDS011;9873;52.236;21.002;2023-03-23T13:49:28;7.13;;;3.45;;
17261;SDS011;9873;52.236;21.002;2023-03-23T13:59:47;6.70;;;3.20;;
17261;SDS011;9873;52.236;21.002;2023-03-23T14:09:53;4.57;;;2.70;;
17261;SDS011;9873;52.236;21.002;2023-03-23T14:19:58;4.78;;;2.83;;
17261;SDS011;9873;52.236;21.002;2023-03-23T14:30:14;8.85;;;2.90;;
17261;SDS011;9873;52.236;21.002;2023-03-23T14:40:21;5.95;;;3.38;;
17261;SDS011;9873;52.236;21.002;2023-03-23T15:00:51;6.28;;;3.38;;
17261;SDS011;9873;52.236;21.002;2023-03-23T15:21:18;8.10;;;4.40;;
17261;SDS011;9873;52.236;21.002;2023-03-23T15:31:25;5.68;;;3.80;;
17261;SDS011;9873;52.236;21.002;2023-03-23T15:41:33;6.72;;;3.30;;
17261;SDS011;9873;52.236;21.002;2023-03-23T15:51:35;7.10;;;4.18;;
17261;SDS011;9873;52.236;21.002;2023-03-23T16:01:45;6.90;;;3.92;;
17261;SDS011;9873;52.236;21.002;2023-03-23T16:11:52;6.55;;;3.80;;
17261;SDS011;9873;52.236;21.002;2023-03-23T16:21:54;6.25;;;4.47;;
17261;SDS011;9873;52.236;21.002;2023-03-23T16:31:59;6.20;;;4.63;;
17261;SDS011;9873;52.236;21.002;2023-03-23T16:42:01;7.55;;;4.53;;
17261;SDS011;9873;52.236;21.002;2023-03-23T16:52:03;6.65;;;3.53;;
17261;SDS011;9873;52.236;21.002;2023-03-23T17:02:10;6.15;;;4.18;;
17261;SDS011;9873;52.236;21.002;2023-03-23T17:12:15;6.95;;;3.97;;
17261;SDS011;9873;52.236;21.002;2023-03-23T17:22:17;6.28;;;4.20;;
17261;SDS011;9873;52.236;21.002;2023-03-23T17:32:22;7.13;;;4.63;;
17261;SDS011;9873;52.236;21.002;2023-03-23T17:42:28;6.40;;;4.53;;
17261;SDS011;9873;52.236;21.002;2023-03-23T17:52:34;7.68;;;4.50;;
17261;SDS011;9873;52.236;21.002;2023-03-23T18:02:39;6.60;;;5.05;;
17261;SDS011;9873;52.236;21.002;2023-03-23T18:12:43;6.75;;;4.55;;
17261;SDS011;9873;52.236;21.002;2023-03-23T18:22:48;8.30;;;4.78;;
17261;SDS011;9873;52.236;21.002;2023-03-23T18:32:52;7.63;;;5.28;;
17261;SDS011;9873;52.236;21.002;2023-03-23T18:42:59;9.68;;;5.03;;
17261;SDS011;9873;52.236;21.002;2023-03-23T18:53:06;8.27;;;5.43;;
17261;SDS011;9873;52.236;21.002;2023-03-23T19:03:11;9.07;;;6.70;;
17261;SDS011;9873;52.236;21.002;2023-03-23T19:13:14;11.25;;;6.28;;
17261;SDS011;9873;52.236;21.002;2023-03-23T19:23:20;10.45;;;4.72;;
17261;SDS011;9873;52.236;21.002;2023-03-23T19:33:25;7.93;;;4.22;;
17261;SDS011;9873;52.236;21.002;2023-03-23T19:43:33;6.60;;;3.35;;
17261;SDS011;9873;52.236;21.002;2023-03-23T19:53:40;5.55;;;3.13;;
17261;SDS011;9873;52.236;21.002;2023-03-23T20:03:51;6.30;;;3.30;;
17261;SDS011;9873;52.236;21.002;2023-03-23T20:14:02;3.00;;;2.33;;
17261;SDS011;9873;52.236;21.002;2023-03-23T20:24:08;4.00;;;2.63;;
17261;SDS011;9873;52.236;21.002;2023-03-23T20:34:14;3.30;;;2.60;;
17261;SDS011;9873;52.236;21.002;2023-03-23T20:44:32;3.40;;;2.53;;
17261;SDS011;9873;52.236;21.002;2023-03-23T20:54:35;4.22;;;3.13;;
17261;SDS011;9873;52.236;21.002;2023-03-23T21:04:42;4.10;;;2.35;;
17261;SDS011;9873;52.236;21.002;2023-03-23T21:14:51;5.05;;;3.15;;
17261;SDS011;9873;52.236;21.002;2023-03-23T21:24:56;4.57;;;2.80;;
17261;SDS011;9873;52.236;21.002;2023-03-23T21:35:01;5.25;;;3.13;;
17261;SDS011;9873;52.236;21.002;2023-03-23T21:45:04;4.78;;;3.08;;
17261;SDS011;9873;52.236;21.002;2023-03-23T21:55:10;4.47;;;2.95;;
17261;SDS011;9873;52.236;21.002;2023-03-23T22:05:16;8.45;;;4.25;;
17261;SDS011;9873;52.236;21.002;2023-03-23T22:15:22;5.07;;;3.70;;
17261;SDS011;9873;52.236;21.002;2023-03-23T22:25:29;6.57;;;4.40;;
17261;SDS011;9873;52.236;21.002;2023-03-23T22:35:39;9.35;;;4.40;;
17261;SDS011;9873;52.236;21.002;2023-03-23T22:45:48;9.20;;;6.50;;
17261;SDS011;9873;52.236;21.002;2023-03-23T22:55:54;8.50;;;5.68;;
17261;SDS011;9873;52.236;21.002;2023-03-23T23:05:58;8.77;;;5.00;;
17261;SDS011;9873;52.236;21.002;2023-03-23T23:16:06;8.35;;;4.65;;
17261;SDS011;9873;52.236;21.002;2023-03-23T23:26:14;6.38;;;4.00;;
17261;SDS011;9873;52.236;21.002;2023-03-23T23:36:22;6.32;;;4.10;;
17261;SDS011;9873;52.236;21.002;2023-03-23T23:46:29;6.22;;;4.50;;
17261;SDS011;9873;52.236;21.002;2023-03-23T23:56:32;5.97;;;4.30;;
